sensor_id;sensor_type;location;lat;lon;timestamp;temperature;humidity
68480;DHT22;55469;48.934;12.050;2022-11-13T00:01:15;7.80;94.90
68480;DHT22;55469;48.934;12.050;2022-11-13T00:03:45;7.80;94.90
68480;DHT22;55469;48.934;12.050;2022-11-13T00:06:11;7.80;94.90
68480;DHT22;55469;48.934;12.050;2022-11-13T00:08:38;7.80;94.90
68480;DHT22;55469;48.934;12.050;2022-11-13T00:11:10;7.80;94.90
68480;DHT22;55469;48.934;12.050;2022-11-13T00:13:39;7.70;94.90
68480;DHT22;55469;48.934;12.050;2022-11-13T00:16:08;7.80;94.90
68480;DHT22;55469;48.934;12.050;2022-11-13T00:18:36;7.80;94.90
68480;DHT22;55469;48.934;12.050;2022-11-13T00:21:13;7.80;94.90
68480;DHT22;55469;48.934;12.050;2022-11-13T00:23:44;7.80;94.90
68480;DHT22;55469;48.934;12.050;2022-11-13T00:26:14;7.80;94.90
68480;DHT22;55469;48.934;12.050;2022-11-13T00:28:42;7.70;94.90
68480;DHT22;55469;48.934;12.050;2022-11-13T00:31:09;7.70;94.90
68480;DHT22;55469;48.934;12.050;2022-11-13T00:33:36;7.70;94.90
68480;DHT22;55469;48.934;12.050;2022-11-13T00:36:04;7.80;94.90
68480;DHT22;55469;48.934;12.050;2022-11-13T00:38:34;7.80;94.90
68480;DHT22;55469;48.934;12.050;2022-11-13T00:41:00;7.70;94.90
68480;DHT22;55469;48.934;12.050;2022-11-13T00:43:27;7.70;94.90
68480;DHT22;55469;48.934;12.050;2022-11-13T00:45:53;7.70;94.90
68480;DHT22;55469;48.934;12.050;2022-11-13T00:48:18;7.70;94.90
68480;DHT22;55469;48.934;12.050;2022-11-13T00:50:45;7.70;94.90
68480;DHT22;55469;48.934;12.050;2022-11-13T00:53:11;7.70;94.90
68480;DHT22;55469;48.934;12.050;2022-11-13T00:55:37;7.70;94.90
68480;DHT22;55469;48.934;12.050;2022-11-13T00:58:03;7.70;94.90
68480;DHT22;55469;48.934;12.050;2022-11-13T01:00:30;7.70;94.90
68480;DHT22;55469;48.934;12.050;2022-11-13T01:02:58;7.70;94.90
68480;DHT22;55469;48.934;12.050;2022-11-13T01:05:24;7.70;94.90
68480;DHT22;55469;48.934;12.050;2022-11-13T01:07:50;7.70;94.90
68480;DHT22;55469;48.934;12.050;2022-11-13T01:10:17;7.70;94.90
68480;DHT22;55469;48.934;12.050;2022-11-13T01:12:43;7.70;94.90
68480;DHT22;55469;48.934;12.050;2022-11-13T01:15:09;7.60;94.90
68480;DHT22;55469;48.934;12.050;2022-11-13T01:17:35;7.70;94.90
68480;DHT22;55469;48.934;12.050;2022-11-13T01:20:01;7.70;94.90
68480;DHT22;55469;48.934;12.050;2022-11-13T01:22:28;7.70;94.90
68480;DHT22;55469;48.934;12.050;2022-11-13T01:24:53;7.70;94.90
68480;DHT22;55469;48.934;12.050;2022-11-13T01:27:19;7.70;94.90
68480;DHT22;55469;48.934;12.050;2022-11-13T01:29:45;7.60;95.40
68480;DHT22;55469;48.934;12.050;2022-11-13T01:32:11;7.60;94.90
68480;DHT22;55469;48.934;12.050;2022-11-13T01:34:36;7.60;94.90
68480;DHT22;55469;48.934;12.050;2022-11-13T01:37:02;7.60;94.90
68480;DHT22;55469;48.934;12.050;2022-11-13T01:39:29;7.60;94.90
68480;DHT22;55469;48.934;12.050;2022-11-13T01:41:54;7.60;94.90
68480;DHT22;55469;48.934;12.050;2022-11-13T01:44:20;7.60;94.90
68480;DHT22;55469;48.934;12.050;2022-11-13T01:46:52;7.60;94.90
68480;DHT22;55469;48.934;12.050;2022-11-13T01:52:04;7.60;94.90
68480;DHT22;55469;48.934;12.050;2022-11-13T01:54:35;7.60;94.90
68480;DHT22;55469;48.934;12.050;2022-11-13T01:57:03;7.60;94.90
68480;DHT22;55469;48.934;12.050;2022-11-13T01:59:35;7.60;94.90
68480;DHT22;55469;48.934;12.050;2022-11-13T02:02:04;7.60;95.00
68480;DHT22;55469;48.934;12.050;2022-11-13T02:04:31;7.60;94.90
68480;DHT22;55469;48.934;12.050;2022-11-13T02:07:03;7.60;95.00
68480;DHT22;55469;48.934;12.050;2022-11-13T02:09:35;7.50;94.90
68480;DHT22;55469;48.934;12.050;2022-11-13T02:12:07;7.60;95.00
68480;DHT22;55469;48.934;12.050;2022-11-13T02:14:38;7.60;94.90
68480;DHT22;55469;48.934;12.050;2022-11-13T02:17:08;7.50;94.90
68480;DHT22;55469;48.934;12.050;2022-11-13T02:19:41;7.50;94.90
68480;DHT22;55469;48.934;12.050;2022-11-13T02:24:44;7.50;95.00
68480;DHT22;55469;48.934;12.050;2022-11-13T02:30:27;7.50;95.00
68480;DHT22;55469;48.934;12.050;2022-11-13T02:32:55;7.50;95.00
68480;DHT22;55469;48.934;12.050;2022-11-13T02:35:32;7.50;95.00
68480;DHT22;55469;48.934;12.050;2022-11-13T02:38:02;7.50;95.10
68480;DHT22;55469;48.934;12.050;2022-11-13T02:40:31;7.50;95.00
68480;DHT22;55469;48.934;12.050;2022-11-13T02:42:57;7.50;95.00
68480;DHT22;55469;48.934;12.050;2022-11-13T02:45:23;7.50;95.00
68480;DHT22;55469;48.934;12.050;2022-11-13T02:47:49;7.50;95.00
68480;DHT22;55469;48.934;12.050;2022-11-13T02:50:15;7.50;95.00
68480;DHT22;55469;48.934;12.050;2022-11-13T02:52:41;7.50;95.00
68480;DHT22;55469;48.934;12.050;2022-11-13T02:55:08;7.50;95.00
68480;DHT22;55469;48.934;12.050;2022-11-13T02:57:34;7.50;95.00
68480;DHT22;55469;48.934;12.050;2022-11-13T03:00:00;7.40;94.90
68480;DHT22;55469;48.934;12.050;2022-11-13T03:02:26;7.50;94.90
68480;DHT22;55469;48.934;12.050;2022-11-13T03:04:52;7.50;94.90
68480;DHT22;55469;48.934;12.050;2022-11-13T03:07:18;7.50;94.90
68480;DHT22;55469;48.934;12.050;2022-11-13T03:09:44;7.50;95.00
68480;DHT22;55469;48.934;12.050;2022-11-13T03:12:10;7.50;95.00
68480;DHT22;55469;48.934;12.050;2022-11-13T03:14:35;7.40;94.90
68480;DHT22;55469;48.934;12.050;2022-11-13T03:17:02;7.40;94.90
68480;DHT22;55469;48.934;12.050;2022-11-13T03:19:34;7.40;94.90
68480;DHT22;55469;48.934;12.050;2022-11-13T03:22:00;7.40;95.00
68480;DHT22;55469;48.934;12.050;2022-11-13T03:24:25;7.40;95.00
68480;DHT22;55469;48.934;12.050;2022-11-13T03:26:51;7.40;94.90
68480;DHT22;55469;48.934;12.050;2022-11-13T03:29:17;7.40;94.90
68480;DHT22;55469;48.934;12.050;2022-11-13T03:31:43;7.40;95.10
68480;DHT22;55469;48.934;12.050;2022-11-13T03:34:08;7.40;94.90
68480;DHT22;55469;48.934;12.050;2022-11-13T03:36:34;7.40;94.90
68480;DHT22;55469;48.934;12.050;2022-11-13T03:39:00;7.40;94.90
68480;DHT22;55469;48.934;12.050;2022-11-13T03:41:26;7.40;94.80
68480;DHT22;55469;48.934;12.050;2022-11-13T03:43:52;7.40;94.90
68480;DHT22;55469;48.934;12.050;2022-11-13T03:46:17;7.40;94.90
68480;DHT22;55469;48.934;12.050;2022-11-13T03:48:43;7.30;94.90
68480;DHT22;55469;48.934;12.050;2022-11-13T03:51:09;7.40;94.90
68480;DHT22;55469;48.934;12.050;2022-11-13T03:53:35;7.30;94.90
68480;DHT22;55469;48.934;12.050;2022-11-13T03:56:01;7.30;94.90
68480;DHT22;55469;48.934;12.050;2022-11-13T03:58:27;7.30;94.90
68480;DHT22;55469;48.934;12.050;2022-11-13T04:00:54;7.30;94.90
68480;DHT22;55469;48.934;12.050;2022-11-13T04:03:20;7.30;94.90
68480;DHT22;55469;48.934;12.050;2022-11-13T04:05:48;7.30;94.90
68480;DHT22;55469;48.934;12.050;2022-11-13T04:08:15;7.30;94.90
68480;DHT22;55469;48.934;12.050;2022-11-13T04:10:42;7.30;94.90
68480;DHT22;55469;48.934;12.050;2022-11-13T04:13:08;7.20;94.90
68480;DHT22;55469;48.934;12.050;2022-11-13T04:15:34;7.20;94.90
68480;DHT22;55469;48.934;12.050;2022-11-13T04:18:01;7.20;94.90
68480;DHT22;55469;48.934;12.050;2022-11-13T04:20:27;7.20;94.90
68480;DHT22;55469;48.934;12.050;2022-11-13T04:22:55;7.20;94.90
68480;DHT22;55469;48.934;12.050;2022-11-13T04:25:22;7.20;94.90
68480;DHT22;55469;48.934;12.050;2022-11-13T04:27:50;7.20;94.90
68480;DHT22;55469;48.934;12.050;2022-11-13T04:30:17;7.20;94.90
68480;DHT22;55469;48.934;12.050;2022-11-13T04:32:43;7.20;95.00
68480;DHT22;55469;48.934;12.050;2022-11-13T04:35:10;7.20;94.90
68480;DHT22;55469;48.934;12.050;2022-11-13T04:37:36;7.20;94.80
68480;DHT22;55469;48.934;12.050;2022-11-13T04:40:03;7.20;94.80
68480;DHT22;55469;48.934;12.050;2022-11-13T04:42:29;7.10;94.90
68480;DHT22;55469;48.934;12.050;2022-11-13T04:45:14;7.10;94.80
68480;DHT22;55469;48.934;12.050;2022-11-13T04:47:48;7.10;94.80
68480;DHT22;55469;48.934;12.050;2022-11-13T04:50:16;7.10;94.80
68480;DHT22;55469;48.934;12.050;2022-11-13T04:52:42;7.10;94.90
68480;DHT22;55469;48.934;12.050;2022-11-13T04:55:09;7.10;94.90
68480;DHT22;55469;48.934;12.050;2022-11-13T04:57:36;7.10;94.80
68480;DHT22;55469;48.934;12.050;2022-11-13T05:00:03;7.10;94.80
68480;DHT22;55469;48.934;12.050;2022-11-13T05:02:31;7.10;94.90
68480;DHT22;55469;48.934;12.050;2022-11-13T05:04:57;7.10;94.90
68480;DHT22;55469;48.934;12.050;2022-11-13T05:07:23;7.10;94.90
68480;DHT22;55469;48.934;12.050;2022-11-13T05:09:51;7.10;94.90
68480;DHT22;55469;48.934;12.050;2022-11-13T05:12:17;7.10;94.90
68480;DHT22;55469;48.934;12.050;2022-11-13T05:14:43;7.10;94.90
68480;DHT22;55469;48.934;12.050;2022-11-13T05:17:10;7.10;94.90
68480;DHT22;55469;48.934;12.050;2022-11-13T05:19:37;7.10;94.90
68480;DHT22;55469;48.934;12.050;2022-11-13T05:22:03;7.10;94.90
68480;DHT22;55469;48.934;12.050;2022-11-13T05:24:30;7.10;94.90
68480;DHT22;55469;48.934;12.050;2022-11-13T05:26:55;7.10;94.90
68480;DHT22;55469;48.934;12.050;2022-11-13T05:29:21;7.00;94.90
68480;DHT22;55469;48.934;12.050;2022-11-13T05:31:47;7.00;94.90
68480;DHT22;55469;48.934;12.050;2022-11-13T05:34:13;7.10;94.90
68480;DHT22;55469;48.934;12.050;2022-11-13T05:36:39;7.00;94.80
68480;DHT22;55469;48.934;12.050;2022-11-13T05:39:05;7.10;94.90
68480;DHT22;55469;48.934;12.050;2022-11-13T05:41:31;7.00;94.80
68480;DHT22;55469;48.934;12.050;2022-11-13T05:43:58;7.00;94.80
68480;DHT22;55469;48.934;12.050;2022-11-13T05:46:26;7.00;94.80
68480;DHT22;55469;48.934;12.050;2022-11-13T05:48:55;7.00;94.80
68480;DHT22;55469;48.934;12.050;2022-11-13T05:51:27;7.00;94.80
68480;DHT22;55469;48.934;12.050;2022-11-13T05:53:54;7.00;94.80
68480;DHT22;55469;48.934;12.050;2022-11-13T05:56:26;7.00;94.90
68480;DHT22;55469;48.934;12.050;2022-11-13T05:58:54;7.00;95.30
68480;DHT22;55469;48.934;12.050;2022-11-13T06:03:48;7.00;94.90
68480;DHT22;55469;48.934;12.050;2022-11-13T06:06:19;7.00;94.90
68480;DHT22;55469;48.934;12.050;2022-11-13T06:08:46;7.00;94.90
68480;DHT22;55469;48.934;12.050;2022-11-13T06:11:16;7.00;94.90
68480;DHT22;55469;48.934;12.050;2022-11-13T06:13:43;7.00;94.90
68480;DHT22;55469;48.934;12.050;2022-11-13T06:16:11;7.00;94.80
68480;DHT22;55469;48.934;12.050;2022-11-13T06:18:39;7.00;94.80
68480;DHT22;55469;48.934;12.050;2022-11-13T06:21:09;7.00;94.80
68480;DHT22;55469;48.934;12.050;2022-11-13T06:23:38;7.00;94.90
68480;DHT22;55469;48.934;12.050;2022-11-13T06:26:15;6.90;94.80
68480;DHT22;55469;48.934;12.050;2022-11-13T06:28:43;6.90;94.90
68480;DHT22;55469;48.934;12.050;2022-11-13T06:33:43;6.90;94.90
68480;DHT22;55469;48.934;12.050;2022-11-13T06:36:15;6.90;94.90
68480;DHT22;55469;48.934;12.050;2022-11-13T06:38:42;6.90;94.90
68480;DHT22;55469;48.934;12.050;2022-11-13T06:41:13;6.90;94.80
68480;DHT22;55469;48.934;12.050;2022-11-13T06:43:40;6.90;94.90
68480;DHT22;55469;48.934;12.050;2022-11-13T06:46:13;6.90;94.80
68480;DHT22;55469;48.934;12.050;2022-11-13T06:48:40;6.90;94.80
68480;DHT22;55469;48.934;12.050;2022-11-13T06:51:10;6.90;94.80
68480;DHT22;55469;48.934;12.050;2022-11-13T06:53:38;6.90;94.80
68480;DHT22;55469;48.934;12.050;2022-11-13T06:56:05;6.90;94.80
68480;DHT22;55469;48.934;12.050;2022-11-13T06:58:31;6.90;94.80
68480;DHT22;55469;48.934;12.050;2022-11-13T07:01:03;6.90;94.80
68480;DHT22;55469;48.934;12.050;2022-11-13T07:03:39;6.90;94.80
68480;DHT22;55469;48.934;12.050;2022-11-13T07:06:08;6.90;94.80
68480;DHT22;55469;48.934;12.050;2022-11-13T07:08:41;6.90;94.80
68480;DHT22;55469;48.934;12.050;2022-11-13T07:11:10;6.90;94.70
68480;DHT22;55469;48.934;12.050;2022-11-13T07:13:40;6.90;94.80
68480;DHT22;55469;48.934;12.050;2022-11-13T07:16:07;6.90;94.70
68480;DHT22;55469;48.934;12.050;2022-11-13T07:18:34;6.90;94.70
68480;DHT22;55469;48.934;12.050;2022-11-13T07:21:05;6.90;94.70
68480;DHT22;55469;48.934;12.050;2022-11-13T07:23:33;6.90;94.70
68480;DHT22;55469;48.934;12.050;2022-11-13T07:26:04;6.90;94.70
68480;DHT22;55469;48.934;12.050;2022-11-13T07:28:30;6.90;94.60
68480;DHT22;55469;48.934;12.050;2022-11-13T07:31:00;6.90;94.60
68480;DHT22;55469;48.934;12.050;2022-11-13T07:33:25;6.90;94.60
68480;DHT22;55469;48.934;12.050;2022-11-13T07:35:58;6.80;94.50
68480;DHT22;55469;48.934;12.050;2022-11-13T07:38:24;6.80;94.50
68480;DHT22;55469;48.934;12.050;2022-11-13T07:40:50;6.90;94.50
68480;DHT22;55469;48.934;12.050;2022-11-13T07:43:16;6.90;94.50
68480;DHT22;55469;48.934;12.050;2022-11-13T07:45:42;6.80;94.50
68480;DHT22;55469;48.934;12.050;2022-11-13T07:48:08;6.80;94.40
68480;DHT22;55469;48.934;12.050;2022-11-13T07:50:36;6.90;94.50
68480;DHT22;55469;48.934;12.050;2022-11-13T07:53:05;6.80;94.50
68480;DHT22;55469;48.934;12.050;2022-11-13T07:55:33;6.80;94.40
68480;DHT22;55469;48.934;12.050;2022-11-13T07:58:00;6.90;94.40
68480;DHT22;55469;48.934;12.050;2022-11-13T08:00:28;6.90;94.50
68480;DHT22;55469;48.934;12.050;2022-11-13T08:02:55;6.90;94.40
68480;DHT22;55469;48.934;12.050;2022-11-13T08:05:21;6.90;94.30
68480;DHT22;55469;48.934;12.050;2022-11-13T08:07:48;6.90;94.30
68480;DHT22;55469;48.934;12.050;2022-11-13T08:10:16;6.90;94.30
68480;DHT22;55469;48.934;12.050;2022-11-13T08:12:42;7.00;94.20
68480;DHT22;55469;48.934;12.050;2022-11-13T08:15:09;7.00;94.20
68480;DHT22;55469;48.934;12.050;2022-11-13T08:17:35;7.00;94.20
68480;DHT22;55469;48.934;12.050;2022-11-13T08:20:00;7.00;94.20
68480;DHT22;55469;48.934;12.050;2022-11-13T08:22:26;7.00;94.10
68480;DHT22;55469;48.934;12.050;2022-11-13T08:24:52;7.10;94.10
68480;DHT22;55469;48.934;12.050;2022-11-13T08:27:19;7.10;94.10
68480;DHT22;55469;48.934;12.050;2022-11-13T08:29:45;7.10;94.00
68480;DHT22;55469;48.934;12.050;2022-11-13T08:32:15;7.20;94.00
68480;DHT22;55469;48.934;12.050;2022-11-13T08:34:42;7.20;94.00
68480;DHT22;55469;48.934;12.050;2022-11-13T08:37:08;7.20;93.90
68480;DHT22;55469;48.934;12.050;2022-11-13T08:39:34;7.20;93.80
68480;DHT22;55469;48.934;12.050;2022-11-13T08:42:03;7.30;93.80
68480;DHT22;55469;48.934;12.050;2022-11-13T08:44:30;7.30;93.80
68480;DHT22;55469;48.934;12.050;2022-11-13T08:46:56;7.30;93.70
68480;DHT22;55469;48.934;12.050;2022-11-13T08:49:22;7.40;93.60
68480;DHT22;55469;48.934;12.050;2022-11-13T08:51:48;7.40;93.60
68480;DHT22;55469;48.934;12.050;2022-11-13T08:54:13;7.40;93.60
68480;DHT22;55469;48.934;12.050;2022-11-13T08:56:39;7.50;93.50
68480;DHT22;55469;48.934;12.050;2022-11-13T08:59:05;7.50;93.50
68480;DHT22;55469;48.934;12.050;2022-11-13T09:01:31;7.50;93.50
68480;DHT22;55469;48.934;12.050;2022-11-13T09:03:57;7.50;93.50
68480;DHT22;55469;48.934;12.050;2022-11-13T09:06:23;7.50;93.50
68480;DHT22;55469;48.934;12.050;2022-11-13T09:08:49;7.50;93.40
68480;DHT22;55469;48.934;12.050;2022-11-13T09:11:15;7.50;93.40
68480;DHT22;55469;48.934;12.050;2022-11-13T09:13:41;7.60;93.40
68480;DHT22;55469;48.934;12.050;2022-11-13T09:16:07;7.60;93.40
68480;DHT22;55469;48.934;12.050;2022-11-13T09:18:33;7.60;93.30
68480;DHT22;55469;48.934;12.050;2022-11-13T09:21:02;7.60;93.30
68480;DHT22;55469;48.934;12.050;2022-11-13T09:23:28;7.70;93.30
68480;DHT22;55469;48.934;12.050;2022-11-13T09:25:54;7.70;93.30
68480;DHT22;55469;48.934;12.050;2022-11-13T09:28:20;7.70;93.20
68480;DHT22;55469;48.934;12.050;2022-11-13T09:30:46;7.70;93.20
68480;DHT22;55469;48.934;12.050;2022-11-13T09:33:12;7.70;93.20
68480;DHT22;55469;48.934;12.050;2022-11-13T09:35:42;7.70;93.10
68480;DHT22;55469;48.934;12.050;2022-11-13T09:38:11;7.70;93.10
68480;DHT22;55469;48.934;12.050;2022-11-13T09:43:59;7.80;93.60
68480;DHT22;55469;48.934;12.050;2022-11-13T09:46:44;7.80;93.20
68480;DHT22;55469;48.934;12.050;2022-11-13T09:49:24;7.80;93.20
68480;DHT22;55469;48.934;12.050;2022-11-13T09:51:54;7.90;93.10
68480;DHT22;55469;48.934;12.050;2022-11-13T09:54:21;7.90;93.10
68480;DHT22;55469;48.934;12.050;2022-11-13T10:00:11;7.90;93.00
68480;DHT22;55469;48.934;12.050;2022-11-13T10:05:58;8.00;93.00
68480;DHT22;55469;48.934;12.050;2022-11-13T10:14:40;8.10;92.90
68480;DHT22;55469;48.934;12.050;2022-11-13T10:17:34;8.10;92.90
68480;DHT22;55469;48.934;12.050;2022-11-13T10:20:12;8.10;92.90
68480;DHT22;55469;48.934;12.050;2022-11-13T10:22:56;8.10;92.70
68480;DHT22;55469;48.934;12.050;2022-11-13T10:25:27;8.20;92.80
68480;DHT22;55469;48.934;12.050;2022-11-13T10:28:01;8.20;92.80
68480;DHT22;55469;48.934;12.050;2022-11-13T10:30:40;8.20;92.80
68480;DHT22;55469;48.934;12.050;2022-11-13T10:33:08;8.20;92.80
68480;DHT22;55469;48.934;12.050;2022-11-13T10:41:17;8.30;92.60
68480;DHT22;55469;48.934;12.050;2022-11-13T10:46:22;8.40;92.60
68480;DHT22;55469;48.934;12.050;2022-11-13T10:48:49;8.40;92.60
68480;DHT22;55469;48.934;12.050;2022-11-13T10:51:24;8.40;92.50
68480;DHT22;55469;48.934;12.050;2022-11-13T10:53:52;8.40;92.50
68480;DHT22;55469;48.934;12.050;2022-11-13T10:59:12;8.50;92.40
68480;DHT22;55469;48.934;12.050;2022-11-13T11:01:41;8.50;92.40
68480;DHT22;55469;48.934;12.050;2022-11-13T11:04:22;8.60;92.40
68480;DHT22;55469;48.934;12.050;2022-11-13T11:06:52;8.60;92.40
68480;DHT22;55469;48.934;12.050;2022-11-13T11:09:30;8.60;92.40
68480;DHT22;55469;48.934;12.050;2022-11-13T11:12:18;8.60;92.40
68480;DHT22;55469;48.934;12.050;2022-11-13T11:14:58;8.60;92.40
68480;DHT22;55469;48.934;12.050;2022-11-13T11:17:53;8.60;92.40
68480;DHT22;55469;48.934;12.050;2022-11-13T11:23:31;8.70;92.40
68480;DHT22;55469;48.934;12.050;2022-11-13T11:26:28;8.70;92.40
68480;DHT22;55469;48.934;12.050;2022-11-13T11:31:52;8.70;92.30
68480;DHT22;55469;48.934;12.050;2022-11-13T11:34:29;8.70;92.30
68480;DHT22;55469;48.934;12.050;2022-11-13T11:37:06;8.80;92.30
68480;DHT22;55469;48.934;12.050;2022-11-13T11:40:20;8.80;92.30
68480;DHT22;55469;48.934;12.050;2022-11-13T11:43:06;8.80;92.30
68480;DHT22;55469;48.934;12.050;2022-11-13T11:45:49;8.80;92.30
68480;DHT22;55469;48.934;12.050;2022-11-13T11:48:17;8.80;92.30
68480;DHT22;55469;48.934;12.050;2022-11-13T11:51:14;8.80;92.30
68480;DHT22;55469;48.934;12.050;2022-11-13T11:54:41;8.80;92.30
68480;DHT22;55469;48.934;12.050;2022-11-13T11:57:41;8.80;92.40
68480;DHT22;55469;48.934;12.050;2022-11-13T12:00:19;8.80;92.40
68480;DHT22;55469;48.934;12.050;2022-11-13T12:12:02;8.80;92.60
68480;DHT22;55469;48.934;12.050;2022-11-13T12:15:17;8.80;92.70
68480;DHT22;55469;48.934;12.050;2022-11-13T12:18:02;8.80;92.70
68480;DHT22;55469;48.934;12.050;2022-11-13T12:23:56;8.70;92.80
68480;DHT22;55469;48.934;12.050;2022-11-13T12:26:34;8.80;93.00
68480;DHT22;55469;48.934;12.050;2022-11-13T12:32:17;8.70;92.90
68480;DHT22;55469;48.934;12.050;2022-11-13T12:34:59;8.70;92.90
68480;DHT22;55469;48.934;12.050;2022-11-13T12:37:38;8.70;92.90
68480;DHT22;55469;48.934;12.050;2022-11-13T12:40:43;8.70;92.90
68480;DHT22;55469;48.934;12.050;2022-11-13T12:46:15;8.70;93.40
68480;DHT22;55469;48.934;12.050;2022-11-13T12:48:46;8.70;93.00
68480;DHT22;55469;48.934;12.050;2022-11-13T12:51:14;8.70;92.90
68480;DHT22;55469;48.934;12.050;2022-11-13T12:53:50;8.70;92.90
68480;DHT22;55469;48.934;12.050;2022-11-13T12:56:30;8.70;92.90
68480;DHT22;55469;48.934;12.050;2022-11-13T12:59:12;8.70;93.00
68480;DHT22;55469;48.934;12.050;2022-11-13T13:04:59;8.70;92.90
68480;DHT22;55469;48.934;12.050;2022-11-13T13:10:55;8.70;93.00
68480;DHT22;55469;48.934;12.050;2022-11-13T13:13:37;8.70;92.90
68480;DHT22;55469;48.934;12.050;2022-11-13T13:16:09;8.70;93.00
68480;DHT22;55469;48.934;12.050;2022-11-13T13:18:39;8.70;93.00
68480;DHT22;55469;48.934;12.050;2022-11-13T13:21:10;8.70;93.00
68480;DHT22;55469;48.934;12.050;2022-11-13T13:23:46;8.60;93.00
68480;DHT22;55469;48.934;12.050;2022-11-13T13:26:21;8.60;93.00
68480;DHT22;55469;48.934;12.050;2022-11-13T13:29:33;8.70;93.10
68480;DHT22;55469;48.934;12.050;2022-11-13T13:32:10;8.70;93.10
68480;DHT22;55469;48.934;12.050;2022-11-13T13:35:09;8.70;93.10
68480;DHT22;55469;48.934;12.050;2022-11-13T13:40:59;8.60;93.20
68480;DHT22;55469;48.934;12.050;2022-11-13T13:46:29;8.60;93.20
68480;DHT22;55469;48.934;12.050;2022-11-13T13:49:03;8.60;93.20
68480;DHT22;55469;48.934;12.050;2022-11-13T13:51:38;8.60;93.10
68480;DHT22;55469;48.934;12.050;2022-11-13T13:54:07;8.60;93.10
68480;DHT22;55469;48.934;12.050;2022-11-13T13:56:39;8.60;93.20
68480;DHT22;55469;48.934;12.050;2022-11-13T13:59:14;8.60;93.20
68480;DHT22;55469;48.934;12.050;2022-11-13T14:02:17;8.60;93.20
68480;DHT22;55469;48.934;12.050;2022-11-13T14:04:47;8.60;93.20
68480;DHT22;55469;48.934;12.050;2022-11-13T14:07:28;8.60;93.20
68480;DHT22;55469;48.934;12.050;2022-11-13T14:10:16;8.60;93.20
68480;DHT22;55469;48.934;12.050;2022-11-13T14:12:47;8.60;93.20
68480;DHT22;55469;48.934;12.050;2022-11-13T14:15:21;8.60;93.20
68480;DHT22;55469;48.934;12.050;2022-11-13T14:20:49;8.60;93.30
68480;DHT22;55469;48.934;12.050;2022-11-13T14:23:28;8.60;93.30
68480;DHT22;55469;48.934;12.050;2022-11-13T14:25:57;8.60;93.30
68480;DHT22;55469;48.934;12.050;2022-11-13T14:28:25;8.60;93.30
68480;DHT22;55469;48.934;12.050;2022-11-13T14:31:02;8.60;93.30
68480;DHT22;55469;48.934;12.050;2022-11-13T14:33:47;8.60;93.30
68480;DHT22;55469;48.934;12.050;2022-11-13T14:36:15;8.60;93.30
68480;DHT22;55469;48.934;12.050;2022-11-13T14:38:46;8.60;93.30
68480;DHT22;55469;48.934;12.050;2022-11-13T14:41:40;8.60;93.30
68480;DHT22;55469;48.934;12.050;2022-11-13T14:44:11;8.60;93.30
68480;DHT22;55469;48.934;12.050;2022-11-13T14:46:41;8.60;93.40
68480;DHT22;55469;48.934;12.050;2022-11-13T14:49:33;8.60;93.40
68480;DHT22;55469;48.934;12.050;2022-11-13T14:52:00;8.60;93.40
68480;DHT22;55469;48.934;12.050;2022-11-13T14:54:31;8.60;93.40
68480;DHT22;55469;48.934;12.050;2022-11-13T14:57:11;8.60;93.50
68480;DHT22;55469;48.934;12.050;2022-11-13T14:59:39;8.60;93.50
68480;DHT22;55469;48.934;12.050;2022-11-13T15:02:10;8.50;93.40
68480;DHT22;55469;48.934;12.050;2022-11-13T15:04:37;8.50;93.40
68480;DHT22;55469;48.934;12.050;2022-11-13T15:07:18;8.50;93.50
68480;DHT22;55469;48.934;12.050;2022-11-13T15:09:48;8.60;93.50
68480;DHT22;55469;48.934;12.050;2022-11-13T15:12:14;8.50;93.50
68480;DHT22;55469;48.934;12.050;2022-11-13T15:14:40;8.50;93.50
68480;DHT22;55469;48.934;12.050;2022-11-13T15:17:12;8.50;93.40
68480;DHT22;55469;48.934;12.050;2022-11-13T15:19:40;8.50;93.50
68480;DHT22;55469;48.934;12.050;2022-11-13T15:22:10;8.50;93.40
68480;DHT22;55469;48.934;12.050;2022-11-13T15:24:37;8.50;93.50
68480;DHT22;55469;48.934;12.050;2022-11-13T15:27:03;8.50;93.50
68480;DHT22;55469;48.934;12.050;2022-11-13T15:29:30;8.50;93.50
68480;DHT22;55469;48.934;12.050;2022-11-13T15:31:56;8.50;93.50
68480;DHT22;55469;48.934;12.050;2022-11-13T15:34:22;8.50;93.50
68480;DHT22;55469;48.934;12.050;2022-11-13T15:36:48;8.50;93.60
68480;DHT22;55469;48.934;12.050;2022-11-13T15:39:14;8.50;93.50
68480;DHT22;55469;48.934;12.050;2022-11-13T15:41:40;8.50;93.50
68480;DHT22;55469;48.934;12.050;2022-11-13T15:44:13;8.50;93.60
68480;DHT22;55469;48.934;12.050;2022-11-13T15:46:39;8.40;93.60
68480;DHT22;55469;48.934;12.050;2022-11-13T15:49:05;8.40;93.60
68480;DHT22;55469;48.934;12.050;2022-11-13T15:51:41;8.40;94.10
68480;DHT22;55469;48.934;12.050;2022-11-13T15:57:01;8.40;93.70
68480;DHT22;55469;48.934;12.050;2022-11-13T15:59:27;8.40;93.70
68480;DHT22;55469;48.934;12.050;2022-11-13T16:01:53;8.40;93.70
68480;DHT22;55469;48.934;12.050;2022-11-13T16:04:20;8.40;94.10
68480;DHT22;55469;48.934;12.050;2022-11-13T16:06:47;8.40;93.70
68480;DHT22;55469;48.934;12.050;2022-11-13T16:09:14;8.40;93.70
68480;DHT22;55469;48.934;12.050;2022-11-13T16:11:40;8.40;93.70
68480;DHT22;55469;48.934;12.050;2022-11-13T16:14:07;8.30;93.70
68480;DHT22;55469;48.934;12.050;2022-11-13T16:16:38;8.30;93.70
68480;DHT22;55469;48.934;12.050;2022-11-13T16:19:14;8.30;93.70
68480;DHT22;55469;48.934;12.050;2022-11-13T16:21:45;8.30;93.70
68480;DHT22;55469;48.934;12.050;2022-11-13T16:24:11;8.30;93.70
68480;DHT22;55469;48.934;12.050;2022-11-13T16:26:37;8.30;93.80
68480;DHT22;55469;48.934;12.050;2022-11-13T16:29:15;8.30;93.80
68480;DHT22;55469;48.934;12.050;2022-11-13T16:31:43;8.30;93.80
68480;DHT22;55469;48.934;12.050;2022-11-13T16:34:09;8.30;93.80
68480;DHT22;55469;48.934;12.050;2022-11-13T16:36:35;8.30;93.80
68480;DHT22;55469;48.934;12.050;2022-11-13T16:39:02;8.20;93.80
68480;DHT22;55469;48.934;12.050;2022-11-13T16:41:30;8.20;93.80
68480;DHT22;55469;48.934;12.050;2022-11-13T16:43:57;8.20;93.80
68480;DHT22;55469;48.934;12.050;2022-11-13T16:46:28;8.20;93.90
68480;DHT22;55469;48.934;12.050;2022-11-13T16:48:56;8.20;93.90
68480;DHT22;55469;48.934;12.050;2022-11-13T16:51:22;8.20;93.90
68480;DHT22;55469;48.934;12.050;2022-11-13T16:53:48;8.20;93.90
68480;DHT22;55469;48.934;12.050;2022-11-13T16:56:24;8.20;93.90
68480;DHT22;55469;48.934;12.050;2022-11-13T16:58:57;8.20;94.00
68480;DHT22;55469;48.934;12.050;2022-11-13T17:01:24;8.10;93.90
68480;DHT22;55469;48.934;12.050;2022-11-13T17:03:50;8.10;94.00
68480;DHT22;55469;48.934;12.050;2022-11-13T17:06:34;8.10;94.00
68480;DHT22;55469;48.934;12.050;2022-11-13T17:09:02;8.10;94.00
68480;DHT22;55469;48.934;12.050;2022-11-13T17:11:30;8.10;94.00
68480;DHT22;55469;48.934;12.050;2022-11-13T17:14:01;8.10;94.10